Time;durP1;ratioP1;P1;durP2;ratioP2;P2;SDS_P1;SDS_P2;PMS_P1;PMS_P2;Temp;Humidity;BMP_temperature;BMP_pressure;BME280_temperature;BME280_humidity;BME280_pressure;Samples;Min_cycle;Max_cycle;Signal;HPM_P1;HPM_P2
2021/10/17 00:00:35;;;;;;;13.67;9.63;;;11.70;1.00;;;;;;4914353;29;20485;-81
2021/10/17 00:03:04;;;;;;;18.60;12.70;;;11.60;1.00;;;;;;4911510;29;20450;-80
2021/10/17 00:05:34;;;;;;;17.70;9.20;;;11.60;1.00;;;;;;4913045;29;20469;-82
2021/10/17 00:08:04;;;;;;;17.43;12.20;;;11.50;1.00;;;;;;4911980;29;20446;-80
2021/10/17 00:10:35;;;;;;;15.87;9.73;;;11.50;1.00;;;;;;4913486;29;20798;-80
2021/10/17 00:13:06;;;;;;;17.27;11.47;;;11.60;1.00;;;;;;4909859;29;21017;-83
2021/10/17 00:15:37;;;;;;;13.20;8.97;;;11.50;1.00;;;;;;4912602;29;20478;-79
2021/10/17 00:18:07;;;;;;;13.50;9.60;;;11.40;1.00;;;;;;4925543;29;20462;-80
2021/10/17 00:20:36;;;;;;;15.60;9.10;;;11.30;1.00;;;;;;4923022;29;20485;-81
2021/10/17 00:23:04;;;;;;;13.87;9.93;;;11.30;1.00;;;;;;4910990;29;20455;-81
2021/10/17 00:25:32;;;;;;;14.77;9.77;;;11.40;1.00;;;;;;4908050;29;20558;-80
2021/10/17 00:28:01;;;;;;;22.10;10.80;;;11.50;1.00;;;;;;4912406;29;20454;-79
2021/10/17 00:30:31;;;;;;;15.70;10.10;;;11.60;1.00;;;;;;4911185;29;20444;-81
2021/10/17 00:32:59;;;;;;;15.47;9.90;;;11.70;1.00;;;;;;4909010;29;20446;-81
2021/10/17 00:35:27;;;;;;;15.50;10.40;;;11.70;1.00;;;;;;4915299;29;20485;-82
2021/10/17 00:37:56;;;;;;;17.83;10.80;;;11.70;1.00;;;;;;4910599;29;20463;-82
2021/10/17 00:40:24;;;;;;;15.70;11.10;;;11.80;1.00;;;;;;4921847;29;20467;-81
2021/10/17 00:42:55;;;;;;;17.67;9.73;;;11.70;99.90;;;;;;4917735;29;20453;-81
2021/10/17 00:45:27;;;;;;;12.33;8.40;;;11.70;99.90;;;;;;4920024;29;20466;-82
2021/10/17 00:47:57;;;;;;;15.20;8.27;;;11.70;99.90;;;;;;4919551;29;20513;-82
2021/10/17 00:50:26;;;;;;;12.43;8.10;;;11.70;1.00;;;;;;4915323;29;20467;-81
2021/10/17 00:52:55;;;;;;;12.50;8.77;;;11.80;1.00;;;;;;4928405;29;20442;-82
2021/10/17 00:55:24;;;;;;;11.50;8.50;;;11.80;99.90;;;;;;4917936;29;20507;-81
2021/10/17 00:57:52;;;;;;;13.53;8.20;;;11.90;99.90;;;;;;4913160;29;20477;-80
2021/10/17 01:00:20;;;;;;;7.93;5.97;;;11.90;99.90;;;;;;4918180;29;20555;-80
2021/10/17 01:02:49;;;;;;;11.17;8.10;;;11.90;99.90;;;;;;4918308;29;20442;-81
2021/10/17 01:05:18;;;;;;;9.67;6.70;;;11.90;99.90;;;;;;4924090;29;20465;-80
2021/10/17 01:07:47;;;;;;;11.53;8.23;;;11.90;99.90;;;;;;4930791;29;20445;-81
2021/10/17 01:10:16;;;;;;;8.27;6.60;;;11.90;99.90;;;;;;4915882;29;20477;-81
2021/10/17 01:12:45;;;;;;;9.20;6.17;;;11.90;99.90;;;;;;4915875;29;20948;-80
2021/10/17 01:15:13;;;;;;;8.60;6.57;;;12.00;99.90;;;;;;4915509;29;20496;-81
2021/10/17 01:17:41;;;;;;;8.83;6.73;;;11.90;99.90;;;;;;4916371;29;20485;-82
2021/10/17 01:20:11;;;;;;;8.67;6.83;;;12.00;99.90;;;;;;4917709;29;20462;-83
2021/10/17 01:22:41;;;;;;;7.43;5.83;;;11.90;99.90;;;;;;4915976;29;20506;-82
2021/10/17 01:25:10;;;;;;;10.60;7.90;;;11.90;99.90;;;;;;4914759;29;20533;-83
2021/10/17 01:27:38;;;;;;;8.67;5.73;;;11.90;99.90;;;;;;4914139;29;20462;-82
2021/10/17 01:30:08;;;;;;;8.93;7.10;;;11.90;99.90;;;;;;4913219;29;20465;-80
2021/10/17 01:32:36;;;;;;;7.93;5.83;;;11.80;99.90;;;;;;4912010;29;20449;-81
2021/10/17 01:35:05;;;;;;;9.43;6.80;;;11.70;99.90;;;;;;4915098;29;20498;-80
2021/10/17 01:37:35;;;;;;;11.10;7.93;;;11.80;99.90;;;;;;4916144;29;20943;-81
2021/10/17 01:40:05;;;;;;;7.30;6.10;;;11.80;99.90;;;;;;4916441;29;20485;-83
2021/10/17 01:42:33;;;;;;;10.33;7.73;;;11.90;99.90;;;;;;4916819;29;20446;-81
2021/10/17 01:45:01;;;;;;;7.50;6.13;;;11.90;99.90;;;;;;4910667;29;20555;-81
2021/10/17 01:47:30;;;;;;;8.90;6.40;;;11.80;99.90;;;;;;4909796;29;20450;-81
2021/10/17 01:49:58;;;;;;;9.27;6.17;;;11.80;99.90;;;;;;4914774;29;20468;-82
2021/10/17 01:52:26;;;;;;;8.50;6.80;;;11.90;99.90;;;;;;4913603;29;20905;-81
2021/10/17 01:54:56;;;;;;;7.40;6.43;;;11.80;99.90;;;;;;4912881;29;20541;-81
2021/10/17 01:57:24;;;;;;;7.13;6.40;;;11.90;99.90;;;;;;4910242;29;20453;-81
2021/10/17 01:59:52;;;;;;;8.87;6.87;;;12.00;99.90;;;;;;4914609;29;20461;-82
2021/10/17 02:02:20;;;;;;;6.60;5.77;;;12.00;99.90;;;;;;4916884;29;20520;-81
2021/10/17 02:04:51;;;;;;;9.00;6.83;;;12.00;99.90;;;;;;4922550;29;20449;-82
2021/10/17 02:07:19;;;;;;;10.50;5.67;;;11.90;99.90;;;;;;4914054;29;20466;-81
2021/10/17 02:09:47;;;;;;;11.57;5.90;;;11.90;99.90;;;;;;4916031;29;20502;-82
2021/10/17 02:12:21;;;;;;;7.63;6.40;;;11.80;99.90;;;;;;4908850;29;20461;-81
2021/10/17 02:14:49;;;;;;;7.90;6.03;;;11.90;99.90;;;;;;4917268;29;20484;-82
2021/10/17 02:17:17;;;;;;;7.97;6.43;;;11.90;99.90;;;;;;4918063;29;20449;-81
2021/10/17 02:19:45;;;;;;;7.23;6.20;;;11.90;99.90;;;;;;4919055;29;20465;-81
2021/10/17 02:22:13;;;;;;;6.53;5.83;;;11.90;99.90;;;;;;4915118;29;20499;-81
2021/10/17 02:24:41;;;;;;;5.70;5.00;;;11.90;99.90;;;;;;4918386;29;20866;-82
2021/10/17 02:27:10;;;;;;;9.00;6.30;;;11.90;99.90;;;;;;4915220;29;20509;-81
2021/10/17 02:29:39;;;;;;;7.60;5.80;;;11.80;99.90;;;;;;4927218;29;20462;-81
2021/10/17 02:32:08;;;;;;;9.10;7.10;;;11.90;99.90;;;;;;4916759;29;20569;-82
2021/10/17 02:34:37;;;;;;;8.50;6.80;;;11.90;99.90;;;;;;4917690;29;20455;-81
2021/10/17 02:37:05;;;;;;;9.43;6.70;;;11.90;99.90;;;;;;4922801;29;20515;-82
2021/10/17 02:39:33;;;;;;;10.53;6.90;;;11.90;99.90;;;;;;4906260;29;20519;-82
2021/10/17 02:42:01;;;;;;;9.13;6.00;;;11.90;99.90;;;;;;4917804;29;20481;-81
2021/10/17 02:44:29;;;;;;;11.50;7.33;;;11.90;99.90;;;;;;4917139;29;20937;-81
2021/10/17 02:46:59;;;;;;;12.80;8.10;;;11.90;99.90;;;;;;4913679;29;20487;-82
2021/10/17 02:49:27;;;;;;;16.20;9.47;;;11.90;99.90;;;;;;4927525;29;20497;-82
2021/10/17 02:51:55;;;;;;;12.70;8.90;;;11.90;99.90;;;;;;4911509;29;20459;-82
2021/10/17 02:54:24;;;;;;;11.33;7.77;;;11.90;99.90;;;;;;4923965;29;20449;-81
2021/10/17 02:56:52;;;;;;;12.60;7.27;;;12.00;99.90;;;;;;4905485;29;20476;-81
2021/10/17 02:59:20;;;;;;;12.63;7.60;;;12.00;99.90;;;;;;4911206;29;20445;-82
2021/10/17 03:01:50;;;;;;;11.10;7.17;;;12.00;99.90;;;;;;4912456;29;20484;-82
2021/10/17 03:04:20;;;;;;;10.60;7.00;;;12.00;99.90;;;;;;4913524;29;20459;-82
2021/10/17 03:06:48;;;;;;;12.63;7.80;;;12.00;99.90;;;;;;4914763;29;20484;-81
2021/10/17 03:09:16;;;;;;;9.73;7.33;;;12.00;99.90;;;;;;4914802;29;20466;-80
2021/10/17 03:11:44;;;;;;;10.37;7.40;;;11.90;99.90;;;;;;4917122;29;22635;-82
2021/10/17 03:14:13;;;;;;;10.53;7.70;;;12.00;99.90;;;;;;4917625;29;20461;-82
2021/10/17 03:16:42;;;;;;;10.87;7.33;;;11.90;99.90;;;;;;4916152;29;20937;-82
2021/10/17 03:19:11;;;;;;;11.57;7.67;;;12.00;99.90;;;;;;4916238;29;20501;-81
2021/10/17 03:21:40;;;;;;;10.90;7.40;;;12.00;99.90;;;;;;4911949;29;20536;-81
2021/10/17 03:24:09;;;;;;;11.47;7.90;;;12.00;99.90;;;;;;4916214;29;20954;-82
2021/10/17 03:26:37;;;;;;;7.90;7.10;;;12.00;99.90;;;;;;4916602;29;20479;-82
2021/10/17 03:29:05;;;;;;;10.73;7.17;;;11.90;99.90;;;;;;4913136;29;20457;-83
2021/10/17 03:31:37;;;;;;;11.93;8.00;;;11.90;99.90;;;;;;4914130;29;20960;-81
2021/10/17 03:34:05;;;;;;;8.90;7.20;;;11.90;99.90;;;;;;4915349;29;20470;-83
2021/10/17 03:36:33;;;;;;;8.93;7.57;;;12.00;99.90;;;;;;4912582;29;20488;-81
2021/10/17 03:39:03;;;;;;;9.43;7.10;;;12.00;99.90;;;;;;4914087;29;20469;-82
2021/10/17 03:41:31;;;;;;;10.97;7.67;;;12.00;99.90;;;;;;4915554;29;20485;-81
2021/10/17 03:43:59;;;;;;;9.33;6.33;;;12.00;99.90;;;;;;4915414;29;20466;-82
2021/10/17 03:46:28;;;;;;;8.73;6.47;;;12.00;99.90;;;;;;4913648;29;20469;-83
2021/10/17 03:48:56;;;;;;;10.90;7.87;;;12.00;99.90;;;;;;4916554;29;20458;-82
2021/10/17 03:51:24;;;;;;;12.00;7.60;;;11.90;99.90;;;;;;4916513;29;20442;-82
2021/10/17 03:53:52;;;;;;;10.07;7.00;;;12.00;99.90;;;;;;4915737;29;20880;-82
2021/10/17 03:56:22;;;;;;;10.87;8.03;;;11.90;99.90;;;;;;4914975;29;20490;-81
2021/10/17 03:58:50;;;;;;;9.80;7.43;;;11.90;99.90;;;;;;4915352;29;20461;-82
2021/10/17 04:01:18;;;;;;;9.50;7.47;;;11.90;99.90;;;;;;4915688;29;20485;-81
2021/10/17 04:03:47;;;;;;;10.50;7.63;;;11.90;99.90;;;;;;4910878;29;20830;-82
2021/10/17 04:06:15;;;;;;;10.80;7.73;;;11.90;99.90;;;;;;4909473;29;20475;-82
2021/10/17 04:08:44;;;;;;;8.43;7.10;;;11.90;99.90;;;;;;4930854;29;20458;-81
2021/10/17 04:11:12;;;;;;;9.60;7.50;;;11.90;99.90;;;;;;4913332;29;20874;-81
2021/10/17 04:13:42;;;;;;;13.20;7.80;;;11.80;99.90;;;;;;4913546;29;20450;-82
2021/10/17 04:16:10;;;;;;;10.17;7.10;;;11.80;99.90;;;;;;4910860;29;20524;-82
2021/10/17 04:18:38;;;;;;;9.80;6.87;;;11.80;99.90;;;;;;4922391;29;21070;-81
2021/10/17 04:21:06;;;;;;;10.43;6.93;;;11.80;99.90;;;;;;4910012;29;20461;-82
2021/10/17 04:23:34;;;;;;;8.60;6.20;;;11.70;99.90;;;;;;4911656;29;20450;-83
2021/10/17 04:26:03;;;;;;;9.50;6.43;;;11.70;99.90;;;;;;4910350;29;20494;-83
2021/10/17 04:28:31;;;;;;;9.27;6.70;;;11.70;99.90;;;;;;4912201;29;20457;-82
2021/10/17 04:31:00;;;;;;;10.37;7.53;;;11.70;99.90;;;;;;4912662;29;20521;-82
2021/10/17 04:33:29;;;;;;;9.70;7.00;;;11.70;99.90;;;;;;4913250;29;20462;-83
2021/10/17 04:36:00;;;;;;;15.40;8.03;;;11.70;99.90;;;;;;4913460;29;21083;-82
2021/10/17 04:38:28;;;;;;;6.73;5.67;;;11.70;99.90;;;;;;4908940;29;20779;-82
2021/10/17 04:40:56;;;;;;;8.70;7.20;;;11.70;99.90;;;;;;4915801;29;21269;-83
2021/10/17 04:43:24;;;;;;;12.70;8.60;;;11.70;99.90;;;;;;4914073;29;20494;-82
2021/10/17 04:45:52;;;;;;;12.87;9.03;;;11.70;99.90;;;;;;4911739;29;20491;-83
2021/10/17 04:48:22;;;;;;;17.57;10.30;;;11.70;99.90;;;;;;4906786;29;20470;-83
2021/10/17 04:50:50;;;;;;;16.20;10.93;;;11.70;99.90;;;;;;4914741;29;20465;-82
2021/10/17 04:53:19;;;;;;;10.40;7.67;;;11.80;1.00;;;;;;4911965;29;20576;-82
2021/10/17 04:55:47;;;;;;;12.00;8.50;;;11.80;99.90;;;;;;4911074;29;20496;-82
2021/10/17 04:58:15;;;;;;;14.80;10.10;;;11.80;1.00;;;;;;4912098;29;20466;-83
2021/10/17 05:00:43;;;;;;;17.90;9.50;;;11.80;99.90;;;;;;4913513;29;20946;-82
2021/10/17 05:03:12;;;;;;;14.70;10.40;;;11.80;1.00;;;;;;4905702;29;20569;-83
2021/10/17 05:05:43;;;;;;;16.20;11.33;;;11.80;99.90;;;;;;4913304;29;20486;-82
2021/10/17 05:08:11;;;;;;;16.07;8.83;;;11.80;1.00;;;;;;4911009;29;20461;-82
2021/10/17 05:10:39;;;;;;;18.63;9.47;;;11.70;1.00;;;;;;4914917;29;20459;-83
2021/10/17 05:13:07;;;;;;;16.63;10.83;;;11.80;1.00;;;;;;4913272;29;20462;-82
2021/10/17 05:15:35;;;;;;;13.20;8.83;;;11.80;1.00;;;;;;4910000;29;20853;-82
2021/10/17 05:18:04;;;;;;;14.53;9.70;;;11.80;1.00;;;;;;4910645;29;21028;-82
2021/10/17 05:20:32;;;;;;;15.17;10.87;;;11.80;99.90;;;;;;4916431;29;20458;-82
2021/10/17 05:23:01;;;;;;;14.83;9.30;;;11.80;99.90;;;;;;4905285;29;20496;-83
2021/10/17 05:25:30;;;;;;;10.70;8.07;;;11.80;99.90;;;;;;4914614;29;20600;-82
2021/10/17 05:27:58;;;;;;;12.80;9.50;;;11.80;99.90;;;;;;4910607;29;20466;-82
2021/10/17 05:30:26;;;;;;;17.10;9.23;;;11.70;99.90;;;;;;4913305;29;20505;-84
2021/10/17 05:32:54;;;;;;;9.83;7.40;;;11.70;99.90;;;;;;4910668;29;20455;-82
2021/10/17 05:35:22;;;;;;;14.20;8.93;;;11.70;99.90;;;;;;4909820;29;20490;-82
2021/10/17 05:37:51;;;;;;;12.10;8.50;;;11.70;99.90;;;;;;4912049;29;21010;-81
2021/10/17 05:40:21;;;;;;;15.30;10.13;;;11.70;99.90;;;;;;4913167;29;20453;-81
2021/10/17 05:42:55;;;;;;;17.50;10.30;;;11.70;99.90;;;;;;4911419;29;20478;-81
2021/10/17 05:45:23;;;;;;;12.90;8.80;;;11.70;99.90;;;;;;4909922;29;20481;-81
2021/10/17 05:47:51;;;;;;;12.50;8.80;;;11.60;99.90;;;;;;4909951;29;20462;-82
2021/10/17 05:50:19;;;;;;;11.57;8.57;;;11.60;99.90;;;;;;4913996;29;20452;-82
2021/10/17 05:52:47;;;;;;;15.40;9.83;;;11.60;99.90;;;;;;4912577;29;20453;-81
2021/10/17 05:55:15;;;;;;;13.37;8.60;;;11.60;99.90;;;;;;4913617;29;20831;-82
2021/10/17 05:57:45;;;;;;;15.20;8.63;;;11.50;99.90;;;;;;4910473;29;20462;-82
2021/10/17 06:00:14;;;;;;;13.90;9.67;;;11.50;99.90;;;;;;4913030;29;20463;-82
2021/10/17 06:02:42;;;;;;;14.60;8.10;;;11.50;99.90;;;;;;4926892;29;20877;-83
2021/10/17 06:05:10;;;;;;;12.13;8.47;;;11.50;99.90;;;;;;4900615;29;20500;-82
2021/10/17 06:07:38;;;;;;;11.93;9.00;;;11.50;99.90;;;;;;4913686;29;20866;-82
2021/10/17 06:10:08;;;;;;;16.10;9.13;;;11.50;99.90;;;;;;4908175;29;20452;-82
2021/10/17 06:12:37;;;;;;;16.90;8.80;;;11.50;99.90;;;;;;4910610;29;20534;-82
2021/10/17 06:15:08;;;;;;;11.60;8.43;;;11.40;99.90;;;;;;4907876;29;20557;-81
2021/10/17 06:17:37;;;;;;;13.50;9.90;;;11.50;99.90;;;;;;4909562;29;20468;-75
2021/10/17 06:20:07;;;;;;;12.87;9.40;;;11.40;99.90;;;;;;4913317;29;20461;-74
2021/10/17 06:22:35;;;;;;;15.63;9.03;;;11.50;99.90;;;;;;4908555;29;20482;-73
2021/10/17 06:25:04;;;;;;;12.70;8.57;;;11.50;99.90;;;;;;4907496;29;20509;-80
2021/10/17 06:27:33;;;;;;;11.50;7.67;;;11.40;99.90;;;;;;4911629;29;20455;-81
2021/10/17 06:30:01;;;;;;;11.93;8.97;;;11.40;99.90;;;;;;4913097;29;20463;-75
2021/10/17 06:32:30;;;;;;;15.53;9.70;;;11.30;99.90;;;;;;4910810;29;20455;-76
2021/10/17 06:34:58;;;;;;;13.37;7.97;;;11.10;99.90;;;;;;4906809;29;20478;-80
2021/10/17 06:37:27;;;;;;;11.63;7.97;;;11.00;99.90;;;;;;4912023;29;20473;-80
2021/10/17 06:39:55;;;;;;;16.60;9.80;;;11.10;99.90;;;;;;4914829;29;21108;-81
2021/10/17 06:42:23;;;;;;;13.00;8.50;;;11.20;99.90;;;;;;4911246;29;20671;-82
2021/10/17 06:44:51;;;;;;;13.67;8.47;;;11.20;99.90;;;;;;4913839;29;20462;-83
2021/10/17 06:47:19;;;;;;;11.50;7.93;;;11.20;99.90;;;;;;4911807;29;20465;-82
2021/10/17 06:49:49;;;;;;;14.17;8.97;;;11.30;99.90;;;;;;4912250;29;20472;-80
2021/10/17 06:52:17;;;;;;;13.20;8.40;;;11.30;99.90;;;;;;4912925;29;20478;-83
2021/10/17 06:54:46;;;;;;;20.67;11.57;;;11.30;99.90;;;;;;4912358;29;20446;-82
2021/10/17 06:57:14;;;;;;;10.40;8.20;;;11.40;99.90;;;;;;4908720;29;20451;-82
2021/10/17 06:59:42;;;;;;;9.97;8.23;;;11.40;99.90;;;;;;4915133;29;20452;-83
2021/10/17 07:02:10;;;;;;;12.10;8.43;;;11.40;99.90;;;;;;4915018;29;20458;-83
2021/10/17 07:04:38;;;;;;;8.27;7.40;;;11.50;99.90;;;;;;4917405;29;20475;-79
2021/10/17 07:07:08;;;;;;;9.10;7.43;;;11.50;99.90;;;;;;4911798;29;20541;-80
2021/10/17 07:09:36;;;;;;;9.50;7.00;;;11.50;99.90;;;;;;4913806;29;20529;-79
2021/10/17 07:12:05;;;;;;;9.50;8.43;;;11.50;99.90;;;;;;4913621;29;20897;-79
2021/10/17 07:14:33;;;;;;;10.50;8.35;;;11.50;99.90;;;;;;4911345;29;20455;-78
2021/10/17 07:17:01;;;;;;;8.83;7.93;;;11.50;99.90;;;;;;4915952;29;20230;-79
2021/10/17 07:19:29;;;;;;;10.07;7.10;;;11.60;99.90;;;;;;4913806;29;20463;-79
2021/10/17 07:21:57;;;;;;;9.30;6.20;;;11.60;99.90;;;;;;4913027;29;20474;-81
2021/10/17 07:24:27;;;;;;;9.53;7.10;;;11.70;99.90;;;;;;4903341;29;20501;-81
2021/10/17 07:26:55;;;;;;;9.60;7.43;;;11.80;99.90;;;;;;4920560;29;20528;-82
2021/10/17 07:29:23;;;;;;;13.70;8.77;;;11.80;99.90;;;;;;4924466;29;20474;-81
2021/10/17 07:31:51;;;;;;;11.13;6.57;;;11.90;99.90;;;;;;4919585;29;20477;-83
2021/10/17 07:34:20;;;;;;;15.03;7.10;;;12.00;99.90;;;;;;4916879;29;20475;-79
2021/10/17 07:36:48;;;;;;;12.07;7.40;;;12.10;99.90;;;;;;4916545;29;20497;-79
2021/10/17 07:39:16;;;;;;;7.33;6.40;;;12.20;99.90;;;;;;4916557;29;20462;-80
2021/10/17 07:41:48;;;;;;;7.55;6.85;;;12.20;99.90;;;;;;4927992;29;21105;-79
2021/10/17 07:44:16;;;;;;;7.77;6.97;;;12.30;99.90;;;;;;4911084;29;20232;-82
2021/10/17 07:46:45;;;;;;;9.20;7.03;;;12.30;99.90;;;;;;4914475;29;20494;-80
2021/10/17 07:49:13;;;;;;;8.20;6.33;;;12.40;99.90;;;;;;4913370;29;20454;-83
2021/10/17 07:51:41;;;;;;;6.93;5.80;;;12.40;99.90;;;;;;4917301;29;20462;-83
2021/10/17 07:54:10;;;;;;;7.20;5.47;;;12.50;99.90;;;;;;4918360;29;20948;-83
2021/10/17 07:56:39;;;;;;;8.90;6.23;;;12.50;99.90;;;;;;4921987;29;20558;-81
2021/10/17 07:59:08;;;;;;;9.47;6.37;;;12.70;99.90;;;;;;4917497;29;20454;-83
2021/10/17 08:01:38;;;;;;;5.83;5.23;;;12.90;99.90;;;;;;4921357;29;20474;-80
2021/10/17 08:04:08;;;;;;;8.00;6.10;;;13.00;99.90;;;;;;4912927;29;20476;-81
2021/10/17 08:06:36;;;;;;;7.77;6.00;;;13.10;99.90;;;;;;4919377;29;20868;-81
2021/10/17 08:09:05;;;;;;;7.70;6.10;;;13.20;99.90;;;;;;4914268;29;20467;-76
2021/10/17 08:11:33;;;;;;;7.77;5.80;;;13.40;99.90;;;;;;4915913;29;20886;-75
2021/10/17 08:14:01;;;;;;;8.13;5.97;;;13.60;99.90;;;;;;4919314;29;21210;-83
2021/10/17 08:16:31;;;;;;;7.33;5.80;;;13.80;99.90;;;;;;4917027;29;20866;-83
2021/10/17 08:18:59;;;;;;;9.80;6.67;;;14.00;99.90;;;;;;4920628;29;20464;-82
2021/10/17 08:21:27;;;;;;;10.30;7.03;;;14.10;99.90;;;;;;4917909;29;20456;-84
2021/10/17 08:23:56;;;;;;;9.10;6.87;;;14.20;99.90;;;;;;4915735;29;20532;-84
2021/10/17 08:26:25;;;;;;;12.53;8.23;;;14.30;99.90;;;;;;4916268;29;20521;-83
2021/10/17 08:28:53;;;;;;;10.82;8.73;;;14.50;99.90;;;;;;4912861;29;20472;-84
2021/10/17 08:31:21;;;;;;;10.73;7.97;;;14.60;99.90;;;;;;4914613;29;20217;-83
2021/10/17 08:33:51;;;;;;;12.87;8.77;;;14.70;99.90;;;;;;4910851;29;20470;-81
2021/10/17 08:36:20;;;;;;;9.00;5.73;;;14.90;99.90;;;;;;4915151;29;20490;-83
2021/10/17 08:39:08;;;;;;;9.33;7.20;;;15.10;99.90;;;;;;4908651;29;21046;-83
2021/10/17 08:41:36;;;;;;;9.77;6.80;;;15.20;99.90;;;;;;4911247;29;20465;-82
2021/10/17 08:44:05;;;;;;;8.27;6.80;;;15.30;99.90;;;;;;4914056;29;20502;-82
2021/10/17 08:46:34;;;;;;;9.97;6.70;;;15.40;99.90;;;;;;4913666;29;20875;-83
2021/10/17 08:49:04;;;;;;;8.83;6.47;;;15.50;99.90;;;;;;4915297;29;20468;-83
2021/10/17 08:51:32;;;;;;;14.00;8.97;;;15.70;99.90;;;;;;4914332;29;20818;-82
2021/10/17 08:54:00;;;;;;;10.43;7.93;;;15.80;99.90;;;;;;4905426;29;20465;-82
2021/10/17 08:56:29;;;;;;;11.83;7.93;;;16.00;99.90;;;;;;4915034;29;20485;-82
2021/10/17 08:58:57;;;;;;;9.53;6.80;;;16.20;99.90;;;;;;4916075;29;20462;-82
2021/10/17 09:01:32;;;;;;;9.97;8.00;;;16.40;99.90;;;;;;4915179;29;20995;-81
2021/10/17 09:04:05;;;;;;;8.60;6.60;;;16.50;99.90;;;;;;4910295;29;21016;-82
2021/10/17 09:06:37;;;;;;;10.57;7.33;;;16.60;99.90;;;;;;4915442;29;20488;-81
2021/10/17 09:09:07;;;;;;;11.17;8.47;;;16.80;99.90;;;;;;4915249;29;20466;-83
2021/10/17 09:11:38;;;;;;;8.07;6.80;;;17.00;99.90;;;;;;4912216;29;20470;-83
2021/10/17 09:14:08;;;;;;;8.20;6.63;;;17.00;99.90;;;;;;4917750;29;20460;-82
2021/10/17 09:16:39;;;;;;;7.90;6.47;;;17.20;99.90;;;;;;4911789;29;20496;-82
2021/10/17 09:19:16;;;;;;;11.17;7.47;;;17.40;99.90;;;;;;4910540;29;20449;-78
2021/10/17 09:21:58;;;;;;;8.03;7.23;;;17.50;99.90;;;;;;4915789;29;20458;-81
2021/10/17 09:24:28;;;;;;;11.27;7.60;;;17.60;99.90;;;;;;4912221;29;21891;-83
2021/10/17 09:27:09;;;;;;;10.77;8.60;;;17.60;99.90;;;;;;4917033;29;20485;-80
2021/10/17 09:29:39;;;;;;;12.20;6.73;;;17.80;99.90;;;;;;4910941;29;20469;-81
2021/10/17 09:32:12;;;;;;;8.83;7.60;;;17.90;99.90;;;;;;4901772;29;20565;-80
2021/10/17 09:34:41;;;;;;;9.43;7.50;;;18.00;99.90;;;;;;4913849;29;20454;-82
2021/10/17 09:37:13;;;;;;;8.33;7.00;;;18.00;99.90;;;;;;4914475;29;20513;-83
2021/10/17 09:39:45;;;;;;;7.97;6.40;;;18.10;99.90;;;;;;4912084;29;20946;-83
2021/10/17 09:42:19;;;;;;;8.40;6.30;;;18.30;99.90;;;;;;4914866;29;20465;-82
2021/10/17 09:44:48;;;;;;;7.13;6.43;;;18.30;99.90;;;;;;4923988;29;20849;-83
2021/10/17 09:47:18;;;;;;;8.10;6.53;;;18.40;99.90;;;;;;4915782;29;20462;-83
2021/10/17 09:49:47;;;;;;;10.67;7.97;;;18.40;99.90;;;;;;4930580;29;21028;-83
2021/10/17 09:52:19;;;;;;;8.10;7.10;;;18.50;99.90;;;;;;4915039;29;20465;-83
2021/10/17 09:54:49;;;;;;;9.17;7.10;;;18.50;99.90;;;;;;4924819;29;20545;-82
2021/10/17 09:57:18;;;;;;;10.73;8.20;;;18.50;99.90;;;;;;4909263;29;20458;-83
2021/10/17 09:59:46;;;;;;;8.33;6.20;;;18.50;99.90;;;;;;4915262;29;20438;-83
2021/10/17 10:02:15;;;;;;;8.40;6.10;;;18.60;99.90;;;;;;4913147;29;20466;-82
2021/10/17 10:04:46;;;;;;;7.77;5.53;;;18.50;99.90;;;;;;4912648;29;20477;-82
2021/10/17 10:07:22;;;;;;;11.23;7.17;;;18.50;99.90;;;;;;4916970;29;20452;-82
2021/10/17 10:09:51;;;;;;;7.17;5.30;;;18.50;99.90;;;;;;4914784;29;20462;-83
2021/10/17 10:12:20;;;;;;;8.23;7.30;;;18.50;99.90;;;;;;4923660;29;20489;-84
2021/10/17 10:14:50;;;;;;;7.77;5.27;;;18.60;99.90;;;;;;4913355;29;20974;-83
2021/10/17 10:17:19;;;;;;;7.00;6.30;;;18.60;99.90;;;;;;4913921;29;20961;-83
2021/10/17 10:19:48;;;;;;;9.53;7.87;;;18.60;99.90;;;;;;4909203;29;20473;-85
2021/10/17 10:22:19;;;;;;;7.27;5.73;;;18.60;99.90;;;;;;4914353;29;20993;-81
2021/10/17 10:24:51;;;;;;;9.80;7.90;;;18.70;99.90;;;;;;4911298;29;20474;-83
2021/10/17 10:27:20;;;;;;;10.70;7.77;;;18.70;99.90;;;;;;4916849;29;20500;-83
2021/10/17 10:29:49;;;;;;;9.33;5.70;;;18.70;99.90;;;;;;4915739;29;20457;-84
2021/10/17 10:32:23;;;;;;;7.70;5.80;;;18.70;99.90;;;;;;4924908;29;20956;-83
2021/10/17 10:34:53;;;;;;;15.37;10.10;;;18.80;99.90;;;;;;4913791;29;20452;-76
2021/10/17 10:37:24;;;;;;;18.30;10.70;;;19.00;99.90;;;;;;4913124;29;20461;-77
2021/10/17 10:40:15;;;;;;;27.20;15.50;;;19.10;99.90;;;;;;4905246;29;20454;-77
2021/10/17 10:42:46;;;;;;;34.07;17.17;;;19.20;99.90;;;;;;4912912;29;20453;-76
2021/10/17 10:45:34;;;;;;;18.60;12.00;;;19.30;99.90;;;;;;4916070;29;20481;-78
2021/10/17 10:48:22;;;;;;;22.20;12.70;;;19.40;99.90;;;;;;4911141;29;20473;-77
2021/10/17 10:50:54;;;;;;;22.10;12.73;;;19.40;99.90;;;;;;4911595;29;20933;-77
2021/10/17 10:53:54;;;;;;;15.73;9.33;;;19.60;99.90;;;;;;4912108;29;20449;-87
2021/10/17 10:56:46;;;;;;;7.97;6.00;;;19.80;99.90;;;;;;4922171;29;20474;-84
2021/10/17 10:59:17;;;;;;;11.27;7.03;;;19.90;99.90;;;;;;4916914;29;20454;-85
2021/10/17 11:02:01;;;;;;;9.63;6.10;;;20.00;99.90;;;;;;4908625;29;20445;-84
2021/10/17 11:05:07;;;;;;;8.80;7.90;;;20.10;99.90;;;;;;4914502;29;20491;-83
2021/10/17 11:07:40;;;;;;;8.63;6.20;;;20.10;99.90;;;;;;4920731;29;20542;-83
2021/10/17 11:10:46;;;;;;;8.30;7.03;;;20.10;99.90;;;;;;4927793;29;20463;-83
2021/10/17 11:13:46;;;;;;;6.40;5.80;;;20.00;99.90;;;;;;4923162;29;20454;-83
2021/10/17 11:16:21;;;;;;;7.10;5.60;;;19.90;99.90;;;;;;4842377;29;20500;-83
2021/10/17 11:18:58;;;;;;;8.50;7.10;;;19.60;99.90;;;;;;4904871;29;20474;-78
2021/10/17 11:21:31;;;;;;;9.53;6.90;;;19.70;99.90;;;;;;4918804;29;20196;-78
2021/10/17 11:23:59;;;;;;;12.00;7.87;;;19.70;99.90;;;;;;4918476;29;20481;-78
2021/10/17 11:26:29;;;;;;;8.70;6.80;;;19.70;99.90;;;;;;4920554;29;20491;-77
2021/10/17 11:28:59;;;;;;;11.10;7.20;;;19.70;99.90;;;;;;4928326;29;20531;-78
2021/10/17 11:31:29;;;;;;;8.20;6.37;;;19.70;99.90;;;;;;4913147;29;20470;-78
2021/10/17 11:33:58;;;;;;;9.50;7.63;;;19.70;99.90;;;;;;4914233;29;20465;-77
2021/10/17 11:36:26;;;;;;;11.13;8.00;;;19.60;99.90;;;;;;4910128;29;20482;-78
2021/10/17 11:38:56;;;;;;;6.87;5.20;;;19.60;99.90;;;;;;4908157;29;20541;-78
2021/10/17 11:41:24;;;;;;;8.57;7.50;;;19.50;99.90;;;;;;4910447;29;20450;-78
2021/10/17 11:43:56;;;;;;;10.07;7.60;;;19.50;99.90;;;;;;4909104;29;20493;-79
2021/10/17 11:46:27;;;;;;;10.00;5.93;;;19.40;99.90;;;;;;4911253;29;20880;-78
2021/10/17 11:49:00;;;;;;;8.57;6.47;;;19.40;99.90;;;;;;4912926;29;20476;-77
2021/10/17 11:51:30;;;;;;;7.00;5.57;;;19.30;99.90;;;;;;4914597;29;20541;-78
2021/10/17 11:54:00;;;;;;;8.27;6.30;;;19.30;99.90;;;;;;4914848;29;20453;-78
2021/10/17 11:56:29;;;;;;;6.43;5.40;;;19.30;99.90;;;;;;4912422;29;20884;-77
2021/10/17 11:58:58;;;;;;;5.83;5.27;;;19.40;99.90;;;;;;4913282;29;20480;-81
2021/10/17 12:01:26;;;;;;;8.57;6.33;;;19.40;99.90;;;;;;4912749;29;20468;-81
2021/10/17 12:03:57;;;;;;;8.07;5.90;;;19.40;99.90;;;;;;4925649;29;20464;-81
2021/10/17 12:06:26;;;;;;;7.37;5.70;;;19.40;99.90;;;;;;4913743;29;20477;-83
2021/10/17 12:08:56;;;;;;;6.53;4.57;;;19.40;99.90;;;;;;4909394;29;20476;-82
2021/10/17 12:11:25;;;;;;;7.83;5.97;;;19.40;99.90;;;;;;4917463;29;20566;-82
2021/10/17 12:13:55;;;;;;;6.10;5.50;;;19.30;99.90;;;;;;4924558;29;20458;-82
2021/10/17 12:16:26;;;;;;;7.70;5.83;;;19.20;99.90;;;;;;4916441;29;20521;-82
2021/10/17 12:18:58;;;;;;;7.93;5.50;;;19.20;99.90;;;;;;4910437;29;20454;-80
2021/10/17 12:21:28;;;;;;;6.10;5.50;;;19.20;99.90;;;;;;4915737;29;20450;-82
2021/10/17 12:24:00;;;;;;;6.73;5.40;;;19.20;99.90;;;;;;4916045;29;20470;-82
2021/10/17 12:26:30;;;;;;;5.93;5.30;;;19.20;99.90;;;;;;4914424;29;20501;-84
2021/10/17 12:29:10;;;;;;;6.63;5.90;;;19.20;99.90;;;;;;4914967;29;20476;-83
2021/10/17 12:31:42;;;;;;;6.37;5.17;;;19.20;99.90;;;;;;4915943;29;20446;-83
2021/10/17 12:34:10;;;;;;;6.57;5.73;;;19.20;99.90;;;;;;4907266;29;20482;-80
2021/10/17 12:36:40;;;;;;;7.87;5.60;;;19.20;99.90;;;;;;4912545;29;20509;-80
2021/10/17 12:39:10;;;;;;;7.83;5.80;;;19.30;99.90;;;;;;4924427;29;20461;-80
2021/10/17 12:41:39;;;;;;;8.50;6.20;;;19.20;99.90;;;;;;4918818;29;20515;-82
2021/10/17 12:44:08;;;;;;;10.00;7.10;;;19.20;99.90;;;;;;4910801;29;20462;-83
2021/10/17 12:46:38;;;;;;;8.23;6.50;;;19.20;99.90;;;;;;4912773;29;20823;-84
2021/10/17 12:49:12;;;;;;;7.00;6.30;;;19.20;99.90;;;;;;4909317;29;20520;-84
2021/10/17 12:51:48;;;;;;;9.60;7.70;;;19.10;99.90;;;;;;4908025;29;20461;-83
2021/10/17 12:54:17;;;;;;;7.10;6.00;;;19.00;99.90;;;;;;4916606;29;20966;-83
2021/10/17 12:56:57;;;;;;;8.60;6.40;;;19.10;99.90;;;;;;4918099;29;20500;-83